sensor_id;sensor_type;location;lat;lon;timestamp;P1;durP1;ratioP1;P2;durP2;ratioP2
30249;SDS011;17064;47.974;13.826;2022-10-15T00:03:22;1.33;;;1.10;;
30249;SDS011;17064;47.974;13.826;2022-10-15T00:08:22;5.72;;;1.50;;
30249;SDS011;17064;47.974;13.826;2022-10-15T00:13:23;2.72;;;1.00;;
30249;SDS011;17064;47.974;13.826;2022-10-15T00:18:24;2.10;;;1.42;;
30249;SDS011;17064;47.974;13.826;2022-10-15T00:23:24;2.67;;;0.90;;
30249;SDS011;17064;47.974;13.826;2022-10-15T00:28:25;3.38;;;1.40;;
30249;SDS011;17064;47.974;13.826;2022-10-15T00:33:26;4.40;;;1.10;;
30249;SDS011;17064;47.974;13.826;2022-10-15T00:38:27;1.38;;;1.00;;
30249;SDS011;17064;47.974;13.826;2022-10-15T00:43:35;1.58;;;1.23;;
30249;SDS011;17064;47.974;13.826;2022-10-15T00:48:39;3.25;;;1.23;;
30249;SDS011;17064;47.974;13.826;2022-10-15T00:53:40;1.83;;;1.15;;
30249;SDS011;17064;47.974;13.826;2022-10-15T00:58:41;2.28;;;1.30;;
30249;SDS011;17064;47.974;13.826;2022-10-15T01:03:42;5.20;;;1.40;;
30249;SDS011;17064;47.974;13.826;2022-10-15T01:08:42;2.47;;;1.48;;
30249;SDS011;17064;47.974;13.826;2022-10-15T01:13:48;1.33;;;1.20;;
30249;SDS011;17064;47.974;13.826;2022-10-15T01:19:27;1.38;;;1.25;;
30249;SDS011;17064;47.974;13.826;2022-10-15T01:30:00;4.30;;;1.35;;
30249;SDS011;17064;47.974;13.826;2022-10-15T01:40:30;1.55;;;1.17;;
30249;SDS011;17064;47.974;13.826;2022-10-15T01:45:48;3.72;;;1.52;;
30249;SDS011;17064;47.974;13.826;2022-10-15T01:50:52;2.70;;;1.17;;
30249;SDS011;17064;47.974;13.826;2022-10-15T01:55:59;1.80;;;1.00;;
30249;SDS011;17064;47.974;13.826;2022-10-15T02:01:03;1.67;;;1.10;;
30249;SDS011;17064;47.974;13.826;2022-10-15T02:06:05;2.55;;;1.25;;
30249;SDS011;17064;47.974;13.826;2022-10-15T02:11:15;1.45;;;1.10;;
30249;SDS011;17064;47.974;13.826;2022-10-15T02:21:38;1.40;;;1.30;;
30249;SDS011;17064;47.974;13.826;2022-10-15T02:26:44;3.45;;;1.17;;
30249;SDS011;17064;47.974;13.826;2022-10-15T02:31:47;2.13;;;1.40;;
30249;SDS011;17064;47.974;13.826;2022-10-15T02:36:49;1.53;;;1.17;;
30249;SDS011;17064;47.974;13.826;2022-10-15T02:41:51;2.22;;;1.00;;
30249;SDS011;17064;47.974;13.826;2022-10-15T02:46:53;5.25;;;1.30;;
30249;SDS011;17064;47.974;13.826;2022-10-15T02:51:54;10.25;;;1.92;;
30249;SDS011;17064;47.974;13.826;2022-10-15T02:56:55;1.60;;;1.10;;
30249;SDS011;17064;47.974;13.826;2022-10-15T03:01:56;2.40;;;1.30;;
30249;SDS011;17064;47.974;13.826;2022-10-15T03:06:56;2.70;;;1.20;;
30249;SDS011;17064;47.974;13.826;2022-10-15T03:11:57;3.03;;;1.23;;
30249;SDS011;17064;47.974;13.826;2022-10-15T03:16:58;1.98;;;1.02;;
30249;SDS011;17064;47.974;13.826;2022-10-15T03:21:58;3.63;;;1.45;;
30249;SDS011;17064;47.974;13.826;2022-10-15T03:26:59;4.38;;;2.10;;
30249;SDS011;17064;47.974;13.826;2022-10-15T03:32:00;3.58;;;2.22;;
30249;SDS011;17064;47.974;13.826;2022-10-15T03:37:00;3.80;;;2.35;;
30249;SDS011;17064;47.974;13.826;2022-10-15T03:42:01;10.55;;;6.18;;
30249;SDS011;17064;47.974;13.826;2022-10-15T03:47:02;3.47;;;2.50;;
30249;SDS011;17064;47.974;13.826;2022-10-15T03:52:02;5.30;;;2.70;;
30249;SDS011;17064;47.974;13.826;2022-10-15T03:57:03;3.63;;;2.50;;
30249;SDS011;17064;47.974;13.826;2022-10-15T04:02:04;4.85;;;2.78;;
30249;SDS011;17064;47.974;13.826;2022-10-15T04:07:05;5.18;;;3.10;;
30249;SDS011;17064;47.974;13.826;2022-10-15T04:12:05;5.70;;;3.03;;
30249;SDS011;17064;47.974;13.826;2022-10-15T04:17:06;10.38;;;2.97;;
30249;SDS011;17064;47.974;13.826;2022-10-15T04:22:07;7.93;;;3.65;;
30249;SDS011;17064;47.974;13.826;2022-10-15T04:27:08;5.25;;;2.97;;
30249;SDS011;17064;47.974;13.826;2022-10-15T04:32:11;5.93;;;3.72;;
30249;SDS011;17064;47.974;13.826;2022-10-15T04:37:13;6.82;;;4.38;;
30249;SDS011;17064;47.974;13.826;2022-10-15T04:42:14;4.53;;;3.45;;
30249;SDS011;17064;47.974;13.826;2022-10-15T04:47:15;9.20;;;3.92;;
30249;SDS011;17064;47.974;13.826;2022-10-15T04:52:15;7.20;;;4.22;;
30249;SDS011;17064;47.974;13.826;2022-10-15T04:57:16;10.63;;;5.20;;
30249;SDS011;17064;47.974;13.826;2022-10-15T05:02:17;8.45;;;4.55;;
30249;SDS011;17064;47.974;13.826;2022-10-15T05:07:18;13.00;;;4.88;;
30249;SDS011;17064;47.974;13.826;2022-10-15T05:12:19;9.70;;;5.50;;
30249;SDS011;17064;47.974;13.826;2022-10-15T05:17:19;13.38;;;5.75;;
30249;SDS011;17064;47.974;13.826;2022-10-15T05:22:20;9.38;;;5.13;;
30249;SDS011;17064;47.974;13.826;2022-10-15T05:27:21;8.88;;;5.80;;
30249;SDS011;17064;47.974;13.826;2022-10-15T05:32:21;7.30;;;4.53;;
30249;SDS011;17064;47.974;13.826;2022-10-15T05:37:25;7.63;;;4.72;;
30249;SDS011;17064;47.974;13.826;2022-10-15T05:42:25;10.57;;;4.28;;
30249;SDS011;17064;47.974;13.826;2022-10-15T05:47:26;6.43;;;4.72;;
30249;SDS011;17064;47.974;13.826;2022-10-15T05:52:27;6.82;;;4.22;;
30249;SDS011;17064;47.974;13.826;2022-10-15T05:57:28;7.47;;;3.85;;
30249;SDS011;17064;47.974;13.826;2022-10-15T06:02:28;12.85;;;4.07;;
30249;SDS011;17064;47.974;13.826;2022-10-15T06:07:29;6.30;;;4.20;;
30249;SDS011;17064;47.974;13.826;2022-10-15T06:12:31;11.98;;;7.00;;
30249;SDS011;17064;47.974;13.826;2022-10-15T06:17:31;13.32;;;7.38;;
30249;SDS011;17064;47.974;13.826;2022-10-15T06:22:32;10.23;;;5.10;;
30249;SDS011;17064;47.974;13.826;2022-10-15T06:27:33;7.18;;;4.15;;
30249;SDS011;17064;47.974;13.826;2022-10-15T06:37:34;5.90;;;3.35;;
30249;SDS011;17064;47.974;13.826;2022-10-15T06:42:35;5.82;;;3.55;;
30249;SDS011;17064;47.974;13.826;2022-10-15T06:47:35;6.47;;;3.92;;
30249;SDS011;17064;47.974;13.826;2022-10-15T06:52:37;6.47;;;4.55;;
30249;SDS011;17064;47.974;13.826;2022-10-15T06:57:38;10.23;;;6.28;;
30249;SDS011;17064;47.974;13.826;2022-10-15T07:02:39;9.82;;;6.18;;
30249;SDS011;17064;47.974;13.826;2022-10-15T07:07:39;10.98;;;4.82;;
30249;SDS011;17064;47.974;13.826;2022-10-15T07:12:40;9.98;;;4.68;;
30249;SDS011;17064;47.974;13.826;2022-10-15T07:17:50;12.02;;;5.35;;
30249;SDS011;17064;47.974;13.826;2022-10-15T07:22:59;16.50;;;6.70;;
30249;SDS011;17064;47.974;13.826;2022-10-15T07:28:00;11.45;;;6.85;;
30249;SDS011;17064;47.974;13.826;2022-10-15T07:33:01;12.93;;;7.03;;
30249;SDS011;17064;47.974;13.826;2022-10-15T07:38:02;11.50;;;6.55;;
30249;SDS011;17064;47.974;13.826;2022-10-15T07:43:03;9.63;;;5.88;;
30249;SDS011;17064;47.974;13.826;2022-10-15T07:48:03;9.45;;;5.82;;
30249;SDS011;17064;47.974;13.826;2022-10-15T07:53:04;7.90;;;4.13;;
30249;SDS011;17064;47.974;13.826;2022-10-15T07:58:05;7.13;;;3.75;;
30249;SDS011;17064;47.974;13.826;2022-10-15T08:03:07;5.82;;;3.67;;
30249;SDS011;17064;47.974;13.826;2022-10-15T08:08:08;6.30;;;4.22;;
30249;SDS011;17064;47.974;13.826;2022-10-15T08:13:09;6.95;;;4.20;;
30249;SDS011;17064;47.974;13.826;2022-10-15T08:18:10;6.10;;;3.78;;
30249;SDS011;17064;47.974;13.826;2022-10-15T08:23:15;7.88;;;4.57;;
30249;SDS011;17064;47.974;13.826;2022-10-15T08:28:16;7.18;;;4.68;;
30249;SDS011;17064;47.974;13.826;2022-10-15T08:33:16;8.15;;;4.53;;
30249;SDS011;17064;47.974;13.826;2022-10-15T08:38:17;4.50;;;3.13;;
30249;SDS011;17064;47.974;13.826;2022-10-15T08:43:37;8.18;;;2.10;;
30249;SDS011;17064;47.974;13.826;2022-10-15T08:48:43;1.45;;;1.15;;
30249;SDS011;17064;47.974;13.826;2022-10-15T08:53:58;3.15;;;2.08;;
30249;SDS011;17064;47.974;13.826;2022-10-15T09:04:37;1.63;;;1.05;;
30249;SDS011;17064;47.974;13.826;2022-10-15T09:09:56;1.55;;;0.90;;
30249;SDS011;17064;47.974;13.826;2022-10-15T09:20:12;2.55;;;0.80;;
30249;SDS011;17064;47.974;13.826;2022-10-15T09:25:24;3.15;;;0.90;;
30249;SDS011;17064;47.974;13.826;2022-10-15T09:35:49;5.00;;;0.98;;
30249;SDS011;17064;47.974;13.826;2022-10-15T09:46:52;3.10;;;0.70;;
30249;SDS011;17064;47.974;13.826;2022-10-15T09:57:02;2.33;;;0.35;;
30249;SDS011;17064;47.974;13.826;2022-10-15T10:07:35;0.30;;;0.30;;
30249;SDS011;17064;47.974;13.826;2022-10-15T10:12:36;0.40;;;0.22;;
30249;SDS011;17064;47.974;13.826;2022-10-15T10:17:37;0.40;;;0.22;;
30249;SDS011;17064;47.974;13.826;2022-10-15T10:22:42;0.80;;;0.32;;
30249;SDS011;17064;47.974;13.826;2022-10-15T10:27:43;0.50;;;0.50;;
30249;SDS011;17064;47.974;13.826;2022-10-15T10:32:45;1.47;;;0.50;;
30249;SDS011;17064;47.974;13.826;2022-10-15T10:37:46;1.85;;;0.50;;
30249;SDS011;17064;47.974;13.826;2022-10-15T10:42:48;2.60;;;0.35;;
30249;SDS011;17064;47.974;13.826;2022-10-15T10:48:19;7.57;;;0.50;;
30249;SDS011;17064;47.974;13.826;2022-10-15T10:58:23;0.40;;;0.32;;
30249;SDS011;17064;47.974;13.826;2022-10-15T11:03:34;1.88;;;0.30;;
30249;SDS011;17064;47.974;13.826;2022-10-15T11:35:25;1.05;;;0.22;;
30249;SDS011;17064;47.974;13.826;2022-10-15T11:46:35;2.00;;;0.17;;
30249;SDS011;17064;47.974;13.826;2022-10-15T11:57:25;0.40;;;0.30;;
30249;SDS011;17064;47.974;13.826;2022-10-15T12:02:28;0.40;;;0.20;;
30249;SDS011;17064;47.974;13.826;2022-10-15T12:07:40;1.17;;;0.10;;
30249;SDS011;17064;47.974;13.826;2022-10-15T12:28:38;0.45;;;0.40;;
30249;SDS011;17064;47.974;13.826;2022-10-15T12:33:50;6.13;;;0.30;;
30249;SDS011;17064;47.974;13.826;2022-10-15T12:38:58;2.55;;;0.30;;
30249;SDS011;17064;47.974;13.826;2022-10-15T12:44:06;2.45;;;0.30;;
30249;SDS011;17064;47.974;13.826;2022-10-15T12:54:33;0.22;;;0.15;;
30249;SDS011;17064;47.974;13.826;2022-10-15T13:04:44;0.40;;;0.22;;
30249;SDS011;17064;47.974;13.826;2022-10-15T13:09:44;3.55;;;0.22;;
30249;SDS011;17064;47.974;13.826;2022-10-15T13:14:55;3.67;;;0.60;;
30249;SDS011;17064;47.974;13.826;2022-10-15T13:20:04;0.30;;;0.20;;
30249;SDS011;17064;47.974;13.826;2022-10-15T13:25:16;0.30;;;0.20;;
30249;SDS011;17064;47.974;13.826;2022-10-15T13:30:17;1.65;;;0.20;;
30249;SDS011;17064;47.974;13.826;2022-10-15T13:35:19;1.25;;;0.20;;
30249;SDS011;17064;47.974;13.826;2022-10-15T13:40:26;1.83;;;0.28;;
30249;SDS011;17064;47.974;13.826;2022-10-15T13:45:29;3.45;;;0.30;;
30249;SDS011;17064;47.974;13.826;2022-10-15T13:50:33;1.25;;;0.20;;
30249;SDS011;17064;47.974;13.826;2022-10-15T13:55:36;1.83;;;0.32;;
30249;SDS011;17064;47.974;13.826;2022-10-15T14:00:39;3.25;;;0.30;;
30249;SDS011;17064;47.974;13.826;2022-10-15T14:05:40;8.80;;;0.30;;
30249;SDS011;17064;47.974;13.826;2022-10-15T14:10:45;1.05;;;0.30;;
30249;SDS011;17064;47.974;13.826;2022-10-15T14:21:09;2.30;;;0.27;;
30249;SDS011;17064;47.974;13.826;2022-10-15T14:26:14;2.22;;;0.55;;
30249;SDS011;17064;47.974;13.826;2022-10-15T14:31:29;0.30;;;0.30;;
30249;SDS011;17064;47.974;13.826;2022-10-15T14:36:40;0.88;;;0.40;;
30249;SDS011;17064;47.974;13.826;2022-10-15T14:41:53;3.90;;;0.40;;
30249;SDS011;17064;47.974;13.826;2022-10-15T14:46:59;0.32;;;0.30;;
30249;SDS011;17064;47.974;13.826;2022-10-15T14:52:05;0.70;;;0.50;;
30249;SDS011;17064;47.974;13.826;2022-10-15T14:57:15;0.40;;;0.40;;
30249;SDS011;17064;47.974;13.826;2022-10-15T15:02:23;2.13;;;0.28;;
30249;SDS011;17064;47.974;13.826;2022-10-15T15:07:27;4.22;;;0.20;;
30249;SDS011;17064;47.974;13.826;2022-10-15T15:12:27;3.50;;;0.40;;
30249;SDS011;17064;47.974;13.826;2022-10-15T15:17:30;0.50;;;0.30;;
30249;SDS011;17064;47.974;13.826;2022-10-15T15:22:31;0.73;;;0.30;;
30249;SDS011;17064;47.974;13.826;2022-10-15T15:27:34;1.33;;;0.40;;
30249;SDS011;17064;47.974;13.826;2022-10-15T15:32:36;1.42;;;0.63;;
30249;SDS011;17064;47.974;13.826;2022-10-15T15:37:37;1.67;;;0.38;;
30249;SDS011;17064;47.974;13.826;2022-10-15T15:42:38;1.20;;;0.40;;
30249;SDS011;17064;47.974;13.826;2022-10-15T15:47:38;0.90;;;0.60;;
30249;SDS011;17064;47.974;13.826;2022-10-15T15:52:39;1.55;;;0.40;;
30249;SDS011;17064;47.974;13.826;2022-10-15T15:57:40;0.60;;;0.30;;
30249;SDS011;17064;47.974;13.826;2022-10-15T16:02:41;3.00;;;1.20;;
30249;SDS011;17064;47.974;13.826;2022-10-15T16:07:42;1.17;;;0.40;;
30249;SDS011;17064;47.974;13.826;2022-10-15T16:12:43;2.58;;;0.50;;
30249;SDS011;17064;47.974;13.826;2022-10-15T16:17:44;2.00;;;0.50;;
30249;SDS011;17064;47.974;13.826;2022-10-15T16:22:48;1.55;;;0.65;;
30249;SDS011;17064;47.974;13.826;2022-10-15T16:27:49;4.45;;;1.88;;
30249;SDS011;17064;47.974;13.826;2022-10-15T16:32:55;3.55;;;1.27;;
30249;SDS011;17064;47.974;13.826;2022-10-15T16:37:56;1.30;;;0.90;;
30249;SDS011;17064;47.974;13.826;2022-10-15T16:42:57;2.97;;;1.15;;
30249;SDS011;17064;47.974;13.826;2022-10-15T16:47:57;3.40;;;1.45;;
30249;SDS011;17064;47.974;13.826;2022-10-15T16:52:58;7.40;;;1.90;;
30249;SDS011;17064;47.974;13.826;2022-10-15T16:57:59;7.10;;;3.03;;
30249;SDS011;17064;47.974;13.826;2022-10-15T17:02:59;5.18;;;2.75;;
30249;SDS011;17064;47.974;13.826;2022-10-15T17:08:01;4.10;;;2.40;;
30249;SDS011;17064;47.974;13.826;2022-10-15T17:13:01;4.60;;;2.17;;
30249;SDS011;17064;47.974;13.826;2022-10-15T17:18:02;5.43;;;2.10;;
30249;SDS011;17064;47.974;13.826;2022-10-15T17:23:03;3.25;;;2.00;;
30249;SDS011;17064;47.974;13.826;2022-10-15T17:28:05;18.83;;;9.57;;
30249;SDS011;17064;47.974;13.826;2022-10-15T17:33:06;8.63;;;4.40;;
30249;SDS011;17064;47.974;13.826;2022-10-15T17:38:07;7.85;;;2.15;;
30249;SDS011;17064;47.974;13.826;2022-10-15T17:43:08;3.63;;;2.05;;
30249;SDS011;17064;47.974;13.826;2022-10-15T17:48:09;6.68;;;1.70;;
30249;SDS011;17064;47.974;13.826;2022-10-15T17:53:10;4.72;;;2.00;;
30249;SDS011;17064;47.974;13.826;2022-10-15T17:58:12;3.10;;;2.03;;
30249;SDS011;17064;47.974;13.826;2022-10-15T18:03:15;2.92;;;1.63;;
30249;SDS011;17064;47.974;13.826;2022-10-15T18:08:16;4.30;;;1.50;;
30249;SDS011;17064;47.974;13.826;2022-10-15T18:13:18;5.95;;;1.75;;
30249;SDS011;17064;47.974;13.826;2022-10-15T18:18:19;5.15;;;1.40;;
30249;SDS011;17064;47.974;13.826;2022-10-15T18:23:20;3.67;;;1.50;;
30249;SDS011;17064;47.974;13.826;2022-10-15T18:28:23;4.13;;;1.60;;
30249;SDS011;17064;47.974;13.826;2022-10-15T18:33:24;1.80;;;1.20;;
30249;SDS011;17064;47.974;13.826;2022-10-15T18:38:25;3.05;;;1.30;;
30249;SDS011;17064;47.974;13.826;2022-10-15T18:43:26;3.17;;;1.48;;
30249;SDS011;17064;47.974;13.826;2022-10-15T18:48:27;3.35;;;1.05;;
30249;SDS011;17064;47.974;13.826;2022-10-15T18:53:28;2.85;;;1.40;;
30249;SDS011;17064;47.974;13.826;2022-10-15T18:58:29;4.13;;;1.10;;
30249;SDS011;17064;47.974;13.826;2022-10-15T19:03:30;2.38;;;1.40;;
30249;SDS011;17064;47.974;13.826;2022-10-15T19:08:31;5.00;;;1.40;;
30249;SDS011;17064;47.974;13.826;2022-10-15T19:13:33;1.42;;;0.90;;
30249;SDS011;17064;47.974;13.826;2022-10-15T19:18:35;2.93;;;1.70;;
30249;SDS011;17064;47.974;13.826;2022-10-15T19:23:36;3.30;;;1.13;;
30249;SDS011;17064;47.974;13.826;2022-10-15T19:28:37;1.88;;;0.80;;
30249;SDS011;17064;47.974;13.826;2022-10-15T19:33:38;2.88;;;0.98;;
30249;SDS011;17064;47.974;13.826;2022-10-15T19:38:39;2.35;;;1.67;;
30249;SDS011;17064;47.974;13.826;2022-10-15T19:43:40;2.67;;;1.45;;
30249;SDS011;17064;47.974;13.826;2022-10-15T19:48:41;3.00;;;1.55;;
30249;SDS011;17064;47.974;13.826;2022-10-15T19:53:42;1.65;;;1.45;;
30249;SDS011;17064;47.974;13.826;2022-10-15T19:58:43;1.77;;;1.10;;
30249;SDS011;17064;47.974;13.826;2022-10-15T20:03:44;7.18;;;2.10;;
30249;SDS011;17064;47.974;13.826;2022-10-15T20:08:45;4.45;;;1.58;;
30249;SDS011;17064;47.974;13.826;2022-10-15T20:13:47;1.77;;;1.30;;
30249;SDS011;17064;47.974;13.826;2022-10-15T20:18:48;2.72;;;1.17;;
30249;SDS011;17064;47.974;13.826;2022-10-15T20:23:48;4.22;;;1.15;;
30249;SDS011;17064;47.974;13.826;2022-10-15T20:28:49;2.00;;;0.93;;
30249;SDS011;17064;47.974;13.826;2022-10-15T20:33:50;3.78;;;1.35;;
30249;SDS011;17064;47.974;13.826;2022-10-15T20:38:51;1.98;;;1.02;;
30249;SDS011;17064;47.974;13.826;2022-10-15T20:43:52;10.85;;;1.50;;
30249;SDS011;17064;47.974;13.826;2022-10-15T20:48:55;6.22;;;0.90;;
30249;SDS011;17064;47.974;13.826;2022-10-15T20:54:01;3.72;;;0.88;;
30249;SDS011;17064;47.974;13.826;2022-10-15T20:59:02;3.45;;;0.95;;
30249;SDS011;17064;47.974;13.826;2022-10-15T21:04:04;2.90;;;1.00;;
30249;SDS011;17064;47.974;13.826;2022-10-15T21:09:05;3.03;;;1.02;;
30249;SDS011;17064;47.974;13.826;2022-10-15T21:14:06;3.15;;;1.75;;
30249;SDS011;17064;47.974;13.826;2022-10-15T21:19:07;8.57;;;0.90;;
30249;SDS011;17064;47.974;13.826;2022-10-15T21:24:07;4.80;;;1.10;;
30249;SDS011;17064;47.974;13.826;2022-10-15T21:29:08;1.10;;;0.95;;
30249;SDS011;17064;47.974;13.826;2022-10-15T21:34:14;1.38;;;1.02;;
30249;SDS011;17064;47.974;13.826;2022-10-15T21:39:15;2.38;;;0.90;;
30249;SDS011;17064;47.974;13.826;2022-10-15T21:44:16;1.80;;;1.10;;
30249;SDS011;17064;47.974;13.826;2022-10-15T21:49:17;4.53;;;0.90;;
30249;SDS011;17064;47.974;13.826;2022-10-15T21:54:17;3.10;;;1.00;;
30249;SDS011;17064;47.974;13.826;2022-10-15T21:59:18;2.88;;;0.70;;
30249;SDS011;17064;47.974;13.826;2022-10-15T22:04:19;2.85;;;0.93;;
30249;SDS011;17064;47.974;13.826;2022-10-15T22:09:20;6.38;;;1.00;;
30249;SDS011;17064;47.974;13.826;2022-10-15T22:14:20;2.72;;;1.00;;
30249;SDS011;17064;47.974;13.826;2022-10-15T22:19:21;5.80;;;0.90;;
30249;SDS011;17064;47.974;13.826;2022-10-15T22:24:22;1.45;;;0.93;;
30249;SDS011;17064;47.974;13.826;2022-10-15T22:29:23;1.75;;;1.23;;
30249;SDS011;17064;47.974;13.826;2022-10-15T22:39:27;1.23;;;0.70;;
30249;SDS011;17064;47.974;13.826;2022-10-15T22:44:28;1.48;;;0.80;;
30249;SDS011;17064;47.974;13.826;2022-10-15T22:49:28;1.50;;;0.80;;
30249;SDS011;17064;47.974;13.826;2022-10-15T22:54:29;3.38;;;0.82;;
30249;SDS011;17064;47.974;13.826;2022-10-15T22:59:31;3.75;;;1.13;;
30249;SDS011;17064;47.974;13.826;2022-10-15T23:04:31;4.43;;;0.98;;
30249;SDS011;17064;47.974;13.826;2022-10-15T23:09:32;1.67;;;0.88;;
30249;SDS011;17064;47.974;13.826;2022-10-15T23:14:33;1.10;;;0.65;;
30249;SDS011;17064;47.974;13.826;2022-10-15T23:19:34;1.52;;;0.82;;
30249;SDS011;17064;47.974;13.826;2022-10-15T23:24:34;3.28;;;0.70;;
30249;SDS011;17064;47.974;13.826;2022-10-15T23:29:35;3.08;;;0.88;;
30249;SDS011;17064;47.974;13.826;2022-10-15T23:34:36;0.93;;;0.65;;
30249;SDS011;17064;47.974;13.826;2022-10-15T23:39:37;5.68;;;0.98;;
30249;SDS011;17064;47.974;13.826;2022-10-15T23:44:39;3.80;;;0.80;;
30249;SDS011;17064;47.974;13.826;2022-10-15T23:49:40;1.30;;;0.73;;
30249;SDS011;17064;47.974;13.826;2022-10-15T23:54:40;1.58;;;0.68;;
30249;SDS011;17064;47.974;13.826;2022-10-15T23:59:41;4.57;;;0.68;;
